sensor_id;sensor_type;location;lat;lon;timestamp;pressure;altitude;pressure_sealevel;temperature;humidity
7335;BME280;3708;42.632;23.378;2023-04-01T00:01:05;93445.72;;;16.78;38.39
7335;BME280;3708;42.632;23.378;2023-04-01T00:03:33;93459.69;;;16.72;38.80
7335;BME280;3708;42.632;23.378;2023-04-01T00:06:01;93454.00;;;16.63;39.07
7335;BME280;3708;42.632;23.378;2023-04-01T00:08:29;93452.28;;;16.09;40.67
7335;BME280;3708;42.632;23.378;2023-04-01T00:10:57;93463.97;;;16.01;40.33
7335;BME280;3708;42.632;23.378;2023-04-01T00:13:24;93467.88;;;15.56;41.22
7335;BME280;3708;42.632;23.378;2023-04-01T00:15:52;93448.88;;;15.40;41.39
7335;BME280;3708;42.632;23.378;2023-04-01T00:18:19;93454.84;;;15.30;41.87
7335;BME280;3708;42.632;23.378;2023-04-01T00:20:47;93465.31;;;15.16;41.94
7335;BME280;3708;42.632;23.378;2023-04-01T00:23:14;93457.94;;;14.92;42.47
7335;BME280;3708;42.632;23.378;2023-04-01T00:25:44;93464.78;;;14.60;43.50
7335;BME280;3708;42.632;23.378;2023-04-01T00:28:13;93470.28;;;14.44;43.92
7335;BME280;3708;42.632;23.378;2023-04-01T00:30:40;93461.13;;;14.34;44.18
7335;BME280;3708;42.632;23.378;2023-04-01T00:33:06;93460.22;;;14.23;44.44
7335;BME280;3708;42.632;23.378;2023-04-01T00:35:33;93469.81;;;14.38;44.20
7335;BME280;3708;42.632;23.378;2023-04-01T00:38:00;93451.59;;;14.26;44.31
7335;BME280;3708;42.632;23.378;2023-04-01T00:40:30;93452.50;;;14.34;44.08
7335;BME280;3708;42.632;23.378;2023-04-01T00:42:59;93441.66;;;14.42;43.98
7335;BME280;3708;42.632;23.378;2023-04-01T00:45:29;93433.16;;;14.60;43.86
7335;BME280;3708;42.632;23.378;2023-04-01T00:48:00;93433.22;;;14.67;43.84
7335;BME280;3708;42.632;23.378;2023-04-01T00:50:28;93420.09;;;14.74;43.62
7335;BME280;3708;42.632;23.378;2023-04-01T00:52:56;93414.34;;;14.58;44.46
7335;BME280;3708;42.632;23.378;2023-04-01T00:55:25;93417.44;;;14.70;44.12
7335;BME280;3708;42.632;23.378;2023-04-01T00:57:55;93424.31;;;14.82;43.81
7335;BME280;3708;42.632;23.378;2023-04-01T01:00:26;93418.41;;;14.99;43.63
7335;BME280;3708;42.632;23.378;2023-04-01T01:02:53;93427.38;;;14.87;43.32
7335;BME280;3708;42.632;23.378;2023-04-01T01:05:25;93409.16;;;14.72;43.64
7335;BME280;3708;42.632;23.378;2023-04-01T01:08:01;93400.97;;;14.80;43.38
7335;BME280;3708;42.632;23.378;2023-04-01T01:10:34;93405.16;;;14.44;43.86
7335;BME280;3708;42.632;23.378;2023-04-01T01:13:10;93400.72;;;14.52;43.91
7335;BME280;3708;42.632;23.378;2023-04-01T01:15:41;93383.63;;;14.79;43.67
7335;BME280;3708;42.632;23.378;2023-04-01T01:18:19;93376.19;;;14.92;43.18
7335;BME280;3708;42.632;23.378;2023-04-01T01:24:08;93381.69;;;14.32;43.91
7335;BME280;3708;42.632;23.378;2023-04-01T01:29:59;93377.22;;;14.80;42.58
7335;BME280;3708;42.632;23.378;2023-04-01T01:32:59;93378.16;;;15.02;41.62
7335;BME280;3708;42.632;23.378;2023-04-01T01:35:33;93367.72;;;15.19;41.77
7335;BME280;3708;42.632;23.378;2023-04-01T01:38:03;93361.25;;;15.10;40.92
7335;BME280;3708;42.632;23.378;2023-04-01T01:40:32;93352.59;;;15.09;40.87
7335;BME280;3708;42.632;23.378;2023-04-01T01:43:05;93353.84;;;15.33;40.80
7335;BME280;3708;42.632;23.378;2023-04-01T01:45:35;93361.47;;;15.45;40.06
7335;BME280;3708;42.632;23.378;2023-04-01T01:48:05;93351.59;;;15.35;40.34
7335;BME280;3708;42.632;23.378;2023-04-01T01:50:36;93353.66;;;15.63;40.13
7335;BME280;3708;42.632;23.378;2023-04-01T01:53:05;93356.28;;;15.66;39.51
7335;BME280;3708;42.632;23.378;2023-04-01T01:55:34;93356.28;;;15.66;39.54
7335;BME280;3708;42.632;23.378;2023-04-01T01:58:05;93340.44;;;15.63;39.30
7335;BME280;3708;42.632;23.378;2023-04-01T02:00:34;93324.69;;;15.80;39.15
7335;BME280;3708;42.632;23.378;2023-04-01T02:03:01;93319.41;;;15.87;39.18
7335;BME280;3708;42.632;23.378;2023-04-01T02:05:30;93329.75;;;15.35;39.87
7335;BME280;3708;42.632;23.378;2023-04-01T02:08:03;93341.63;;;15.04;39.88
7335;BME280;3708;42.632;23.378;2023-04-01T02:10:36;93327.13;;;15.42;39.56
7335;BME280;3708;42.632;23.378;2023-04-01T02:13:09;93323.47;;;15.64;38.88
7335;BME280;3708;42.632;23.378;2023-04-01T02:15:42;93323.16;;;15.79;39.06
7335;BME280;3708;42.632;23.378;2023-04-01T02:18:11;93311.88;;;15.96;38.54
7335;BME280;3708;42.632;23.378;2023-04-01T02:20:40;93313.00;;;15.88;39.07
7335;BME280;3708;42.632;23.378;2023-04-01T02:23:10;93320.94;;;15.95;38.82
7335;BME280;3708;42.632;23.378;2023-04-01T02:25:38;93314.94;;;16.06;38.89
7335;BME280;3708;42.632;23.378;2023-04-01T02:28:06;93310.41;;;16.10;38.88
7335;BME280;3708;42.632;23.378;2023-04-01T02:30:36;93315.69;;;16.10;38.55
7335;BME280;3708;42.632;23.378;2023-04-01T02:33:06;93313.47;;;16.29;38.41
7335;BME280;3708;42.632;23.378;2023-04-01T02:35:34;93326.28;;;16.27;38.35
7335;BME280;3708;42.632;23.378;2023-04-01T02:38:02;93310.81;;;16.29;38.65
7335;BME280;3708;42.632;23.378;2023-04-01T02:40:41;93314.56;;;16.28;37.85
7335;BME280;3708;42.632;23.378;2023-04-01T02:43:08;93317.84;;;15.72;38.33
7335;BME280;3708;42.632;23.378;2023-04-01T02:45:35;93309.31;;;15.21;39.10
7335;BME280;3708;42.632;23.378;2023-04-01T02:48:02;93316.69;;;15.63;38.58
7335;BME280;3708;42.632;23.378;2023-04-01T02:50:29;93323.22;;;15.93;38.51
7335;BME280;3708;42.632;23.378;2023-04-01T02:52:56;93328.09;;;15.88;38.33
7335;BME280;3708;42.632;23.378;2023-04-01T02:55:23;93320.66;;;15.28;39.37
7335;BME280;3708;42.632;23.378;2023-04-01T02:57:52;93343.66;;;15.28;39.50
7335;BME280;3708;42.632;23.378;2023-04-01T03:00:19;93331.56;;;15.20;39.65
7335;BME280;3708;42.632;23.378;2023-04-01T03:02:46;93328.38;;;15.55;38.96
7335;BME280;3708;42.632;23.378;2023-04-01T03:05:13;93335.19;;;15.66;38.10
7335;BME280;3708;42.632;23.378;2023-04-01T03:07:40;93345.78;;;15.73;38.36
7335;BME280;3708;42.632;23.378;2023-04-01T03:10:07;93349.09;;;15.56;38.87
7335;BME280;3708;42.632;23.378;2023-04-01T03:12:35;93360.47;;;15.67;38.54
7335;BME280;3708;42.632;23.378;2023-04-01T03:15:04;93342.91;;;15.31;39.23
7335;BME280;3708;42.632;23.378;2023-04-01T03:17:31;93362.00;;;15.07;39.49
7335;BME280;3708;42.632;23.378;2023-04-01T03:19:58;93353.28;;;14.15;41.60
7335;BME280;3708;42.632;23.378;2023-04-01T03:22:24;93339.63;;;14.39;41.47
7335;BME280;3708;42.632;23.378;2023-04-01T03:24:51;93349.88;;;14.51;41.18
7335;BME280;3708;42.632;23.378;2023-04-01T03:27:18;93329.03;;;14.32;37.62
7335;BME280;3708;42.632;23.378;2023-04-01T03:29:45;93351.47;;;15.14;35.89
7335;BME280;3708;42.632;23.378;2023-04-01T03:32:13;93347.00;;;15.25;37.00
7335;BME280;3708;42.632;23.378;2023-04-01T03:34:40;93337.84;;;15.77;35.90
7335;BME280;3708;42.632;23.378;2023-04-01T03:37:07;93344.25;;;15.69;37.76
7335;BME280;3708;42.632;23.378;2023-04-01T03:39:34;93344.69;;;14.59;38.90
7335;BME280;3708;42.632;23.378;2023-04-01T03:42:01;93340.00;;;14.01;42.04
7335;BME280;3708;42.632;23.378;2023-04-01T03:44:30;93335.69;;;13.53;44.15
7335;BME280;3708;42.632;23.378;2023-04-01T03:46:57;93324.91;;;13.98;43.77
7335;BME280;3708;42.632;23.378;2023-04-01T03:49:25;93333.19;;;14.33;42.08
7335;BME280;3708;42.632;23.378;2023-04-01T03:51:52;93328.47;;;14.53;40.88
7335;BME280;3708;42.632;23.378;2023-04-01T03:54:19;93322.78;;;15.05;40.71
7335;BME280;3708;42.632;23.378;2023-04-01T03:56:47;93309.84;;;14.86;41.97
7335;BME280;3708;42.632;23.378;2023-04-01T03:59:14;93302.63;;;14.73;41.78
7335;BME280;3708;42.632;23.378;2023-04-01T04:01:40;93282.00;;;14.89;42.08
7335;BME280;3708;42.632;23.378;2023-04-01T04:04:10;93267.78;;;15.04;41.91
7335;BME280;3708;42.632;23.378;2023-04-01T04:06:39;93260.06;;;14.71;43.16
7335;BME280;3708;42.632;23.378;2023-04-01T04:09:06;93266.94;;;14.86;43.07
7335;BME280;3708;42.632;23.378;2023-04-01T04:11:33;93251.22;;;15.07;42.58
7335;BME280;3708;42.632;23.378;2023-04-01T04:14:00;93260.81;;;14.71;43.04
7335;BME280;3708;42.632;23.378;2023-04-01T04:16:27;93249.59;;;14.85;43.01
7335;BME280;3708;42.632;23.378;2023-04-01T04:18:54;93244.47;;;15.13;42.64
7335;BME280;3708;42.632;23.378;2023-04-01T04:21:21;93234.69;;;15.20;42.35
7335;BME280;3708;42.632;23.378;2023-04-01T04:23:49;93229.03;;;15.18;42.12
7335;BME280;3708;42.632;23.378;2023-04-01T04:26:16;93234.50;;;14.75;42.62
7335;BME280;3708;42.632;23.378;2023-04-01T04:28:43;93236.47;;;14.95;42.58
7335;BME280;3708;42.632;23.378;2023-04-01T04:31:10;93233.53;;;15.11;42.31
7335;BME280;3708;42.632;23.378;2023-04-01T04:33:37;93207.53;;;15.13;41.59
7335;BME280;3708;42.632;23.378;2023-04-01T04:36:04;93204.50;;;15.04;41.74
7335;BME280;3708;42.632;23.378;2023-04-01T04:38:32;93209.06;;;15.17;41.57
7335;BME280;3708;42.632;23.378;2023-04-01T04:41:00;93208.28;;;15.10;41.20
7335;BME280;3708;42.632;23.378;2023-04-01T04:43:27;93197.81;;;15.31;41.30
7335;BME280;3708;42.632;23.378;2023-04-01T04:45:54;93184.25;;;15.33;40.83
7335;BME280;3708;42.632;23.378;2023-04-01T04:48:21;93177.47;;;15.39;41.26
7335;BME280;3708;42.632;23.378;2023-04-01T04:50:49;93168.41;;;15.29;40.79
7335;BME280;3708;42.632;23.378;2023-04-01T04:53:17;93161.25;;;15.40;40.72
7335;BME280;3708;42.632;23.378;2023-04-01T04:55:45;93164.63;;;15.19;41.28
7335;BME280;3708;42.632;23.378;2023-04-01T04:58:13;93151.72;;;14.97;41.19
7335;BME280;3708;42.632;23.378;2023-04-01T05:00:40;93159.34;;;15.16;40.75
7335;BME280;3708;42.632;23.378;2023-04-01T05:03:08;93153.34;;;15.37;40.49
7335;BME280;3708;42.632;23.378;2023-04-01T05:05:36;93155.59;;;15.38;40.33
7335;BME280;3708;42.632;23.378;2023-04-01T05:08:03;93166.91;;;15.24;40.65
7335;BME280;3708;42.632;23.378;2023-04-01T05:10:30;93153.16;;;14.77;41.28
7335;BME280;3708;42.632;23.378;2023-04-01T05:12:58;93153.94;;;14.81;41.26
7335;BME280;3708;42.632;23.378;2023-04-01T05:15:26;93169.59;;;14.52;41.77
7335;BME280;3708;42.632;23.378;2023-04-01T05:17:53;93172.91;;;13.88;43.25
7335;BME280;3708;42.632;23.378;2023-04-01T05:20:20;93166.41;;;13.75;43.76
7335;BME280;3708;42.632;23.378;2023-04-01T05:22:48;93157.91;;;13.96;43.48
7335;BME280;3708;42.632;23.378;2023-04-01T05:25:15;93142.03;;;13.85;43.82
7335;BME280;3708;42.632;23.378;2023-04-01T05:27:42;93141.72;;;14.51;42.62
7335;BME280;3708;42.632;23.378;2023-04-01T05:30:09;93130.94;;;14.78;41.97
7335;BME280;3708;42.632;23.378;2023-04-01T05:32:38;93145.25;;;14.80;42.01
7335;BME280;3708;42.632;23.378;2023-04-01T05:35:09;93144.41;;;14.62;42.62
7335;BME280;3708;42.632;23.378;2023-04-01T05:37:52;93139.38;;;14.29;42.96
7335;BME280;3708;42.632;23.378;2023-04-01T05:40:29;93126.72;;;14.56;42.96
7335;BME280;3708;42.632;23.378;2023-04-01T05:42:58;93128.28;;;14.71;43.03
7335;BME280;3708;42.632;23.378;2023-04-01T05:45:28;93136.44;;;14.44;42.91
7335;BME280;3708;42.632;23.378;2023-04-01T05:47:57;93149.50;;;13.36;45.79
7335;BME280;3708;42.632;23.378;2023-04-01T05:50:24;93131.56;;;13.45;45.89
7335;BME280;3708;42.632;23.378;2023-04-01T05:52:51;93139.78;;;13.87;44.70
7335;BME280;3708;42.632;23.378;2023-04-01T05:55:18;93138.81;;;14.06;44.50
7335;BME280;3708;42.632;23.378;2023-04-01T05:57:46;93122.22;;;14.60;43.88
7335;BME280;3708;42.632;23.378;2023-04-01T06:00:16;93107.25;;;14.88;42.76
7335;BME280;3708;42.632;23.378;2023-04-01T06:02:45;93112.41;;;14.60;42.93
7335;BME280;3708;42.632;23.378;2023-04-01T06:05:18;93105.03;;;15.04;42.00
7335;BME280;3708;42.632;23.378;2023-04-01T06:07:45;93112.56;;;14.99;42.32
7335;BME280;3708;42.632;23.378;2023-04-01T06:10:16;93118.72;;;15.52;41.01
7335;BME280;3708;42.632;23.378;2023-04-01T06:13:00;93122.75;;;15.00;41.36
7335;BME280;3708;42.632;23.378;2023-04-01T06:15:39;93120.09;;;15.04;41.41
7335;BME280;3708;42.632;23.378;2023-04-01T06:21:33;93102.13;;;15.97;39.30
7335;BME280;3708;42.632;23.378;2023-04-01T06:24:15;93120.25;;;15.81;39.70
7335;BME280;3708;42.632;23.378;2023-04-01T06:26:54;93105.09;;;16.24;38.93
7335;BME280;3708;42.632;23.378;2023-04-01T06:29:52;93105.00;;;16.70;37.97
7335;BME280;3708;42.632;23.378;2023-04-01T06:32:50;93108.41;;;16.70;38.03
7335;BME280;3708;42.632;23.378;2023-04-01T06:35:29;93111.41;;;16.80;38.12
7335;BME280;3708;42.632;23.378;2023-04-01T06:38:10;93094.56;;;16.03;38.96
7335;BME280;3708;42.632;23.378;2023-04-01T06:40:57;93105.09;;;16.24;38.95
7335;BME280;3708;42.632;23.378;2023-04-01T06:43:37;93098.28;;;16.37;39.23
7335;BME280;3708;42.632;23.378;2023-04-01T06:46:12;93078.25;;;16.50;38.93
7335;BME280;3708;42.632;23.378;2023-04-01T06:48:58;93079.28;;;16.81;38.00
7335;BME280;3708;42.632;23.378;2023-04-01T06:51:36;93066.16;;;16.60;38.59
7335;BME280;3708;42.632;23.378;2023-04-01T06:54:11;93079.66;;;16.76;38.34
7335;BME280;3708;42.632;23.378;2023-04-01T06:56:43;93087.13;;;16.95;37.98
7335;BME280;3708;42.632;23.378;2023-04-01T06:59:15;93086.63;;;16.14;39.77
7335;BME280;3708;42.632;23.378;2023-04-01T07:01:47;93060.97;;;16.21;39.89
7335;BME280;3708;42.632;23.378;2023-04-01T07:04:20;93069.59;;;14.88;42.70
7335;BME280;3708;42.632;23.378;2023-04-01T07:06:50;93065.88;;;15.03;43.33
7335;BME280;3708;42.632;23.378;2023-04-01T07:09:22;93056.53;;;15.65;41.89
7335;BME280;3708;42.632;23.378;2023-04-01T07:11:53;93069.69;;;15.83;41.57
7335;BME280;3708;42.632;23.378;2023-04-01T07:14:25;93068.94;;;16.00;41.44
7335;BME280;3708;42.632;23.378;2023-04-01T07:16:59;93058.72;;;15.21;42.98
7335;BME280;3708;42.632;23.378;2023-04-01T07:19:31;93053.13;;;15.51;42.99
7335;BME280;3708;42.632;23.378;2023-04-01T07:22:03;93056.06;;;15.00;44.00
7335;BME280;3708;42.632;23.378;2023-04-01T07:24:35;93044.03;;;15.20;44.27
7335;BME280;3708;42.632;23.378;2023-04-01T07:27:05;93047.44;;;15.31;43.83
7335;BME280;3708;42.632;23.378;2023-04-01T07:29:35;93061.69;;;14.95;44.93
7335;BME280;3708;42.632;23.378;2023-04-01T07:32:18;93067.22;;;14.55;46.61
7335;BME280;3708;42.632;23.378;2023-04-01T07:35:03;93058.00;;;15.38;45.15
7335;BME280;3708;42.632;23.378;2023-04-01T07:37:39;93058.34;;;15.19;45.37
7335;BME280;3708;42.632;23.378;2023-04-01T07:40:21;93071.59;;;15.54;44.96
7335;BME280;3708;42.632;23.378;2023-04-01T07:43:01;93067.75;;;15.06;46.14
7335;BME280;3708;42.632;23.378;2023-04-01T07:45:37;93051.91;;;14.92;46.28
7335;BME280;3708;42.632;23.378;2023-04-01T07:48:17;93057.53;;;14.90;45.88
7335;BME280;3708;42.632;23.378;2023-04-01T07:50:50;93056.09;;;15.07;45.45
7335;BME280;3708;42.632;23.378;2023-04-01T07:53:25;93059.72;;;14.60;46.71
7335;BME280;3708;42.632;23.378;2023-04-01T07:56:05;93044.00;;;15.06;45.90
7335;BME280;3708;42.632;23.378;2023-04-01T07:58:39;93045.16;;;15.40;45.56
7335;BME280;3708;42.632;23.378;2023-04-01T08:01:14;93047.09;;;15.47;45.51
7335;BME280;3708;42.632;23.378;2023-04-01T08:06:48;93049.63;;;14.90;46.70
7335;BME280;3708;42.632;23.378;2023-04-01T08:09:27;93040.22;;;14.79;46.75
7335;BME280;3708;42.632;23.378;2023-04-01T08:12:17;93039.91;;;15.37;45.90
7335;BME280;3708;42.632;23.378;2023-04-01T08:14:54;93038.75;;;15.83;44.91
7335;BME280;3708;42.632;23.378;2023-04-01T08:17:30;93030.47;;;15.95;44.43
7335;BME280;3708;42.632;23.378;2023-04-01T08:20:12;93029.97;;;16.32;43.66
7335;BME280;3708;42.632;23.378;2023-04-01T08:22:45;93029.56;;;16.44;43.59
7335;BME280;3708;42.632;23.378;2023-04-01T08:25:18;93018.09;;;16.79;42.57
7335;BME280;3708;42.632;23.378;2023-04-01T08:27:51;93004.91;;;16.75;42.53
7335;BME280;3708;42.632;23.378;2023-04-01T08:30:23;92987.25;;;16.44;43.04
7335;BME280;3708;42.632;23.378;2023-04-01T08:32:53;92979.56;;;16.82;42.62
7335;BME280;3708;42.632;23.378;2023-04-01T08:35:27;92987.81;;;16.91;42.28
7335;BME280;3708;42.632;23.378;2023-04-01T08:37:57;92977.44;;;17.10;41.83
7335;BME280;3708;42.632;23.378;2023-04-01T08:40:54;92969.19;;;17.49;41.09
7335;BME280;3708;42.632;23.378;2023-04-01T08:43:36;92961.00;;;17.81;40.18
7335;BME280;3708;42.632;23.378;2023-04-01T08:46:24;92947.22;;;18.26;39.54
7335;BME280;3708;42.632;23.378;2023-04-01T08:49:08;92943.88;;;17.89;40.03
7335;BME280;3708;42.632;23.378;2023-04-01T08:52:03;92946.13;;;17.49;40.96
7335;BME280;3708;42.632;23.378;2023-04-01T08:54:47;92954.22;;;17.35;40.74
7335;BME280;3708;42.632;23.378;2023-04-01T08:57:24;92949.72;;;17.29;40.50
7335;BME280;3708;42.632;23.378;2023-04-01T09:00:19;92927.09;;;17.24;40.53
7335;BME280;3708;42.632;23.378;2023-04-01T09:06:28;92941.63;;;17.02;40.74
7335;BME280;3708;42.632;23.378;2023-04-01T09:09:19;92952.31;;;16.88;41.03
7335;BME280;3708;42.632;23.378;2023-04-01T09:12:22;92941.00;;;17.73;39.37
7335;BME280;3708;42.632;23.378;2023-04-01T09:18:05;92946.56;;;18.19;37.51
7335;BME280;3708;42.632;23.378;2023-04-01T09:21:02;92940.16;;;18.50;36.82
7335;BME280;3708;42.632;23.378;2023-04-01T09:23:42;92939.06;;;18.74;36.63
7335;BME280;3708;42.632;23.378;2023-04-01T09:26:29;92926.38;;;19.12;35.45
7335;BME280;3708;42.632;23.378;2023-04-01T09:29:05;92933.53;;;18.62;36.63
7335;BME280;3708;42.632;23.378;2023-04-01T09:31:53;92912.00;;;19.10;35.37
7335;BME280;3708;42.632;23.378;2023-04-01T09:34:43;92909.38;;;19.56;34.73
7335;BME280;3708;42.632;23.378;2023-04-01T09:37:19;92915.56;;;19.69;34.29
7335;BME280;3708;42.632;23.378;2023-04-01T09:42:45;92906.72;;;19.95;34.01
7335;BME280;3708;42.632;23.378;2023-04-01T09:45:36;92900.59;;;19.98;33.69
7335;BME280;3708;42.632;23.378;2023-04-01T09:48:18;92891.81;;;19.82;33.64
7335;BME280;3708;42.632;23.378;2023-04-01T09:51:00;92903.06;;;20.64;40.16
7335;BME280;3708;42.632;23.378;2023-04-01T09:53:37;92892.56;;;21.09;39.14
7335;BME280;3708;42.632;23.378;2023-04-01T09:59:49;92888.22;;;22.05;31.44
7335;BME280;3708;42.632;23.378;2023-04-01T10:02:45;92877.25;;;22.69;33.70
7335;BME280;3708;42.632;23.378;2023-04-01T10:05:38;92898.59;;;23.07;30.90
7335;BME280;3708;42.632;23.378;2023-04-01T10:11:29;92872.75;;;22.53;30.86
7335;BME280;3708;42.632;23.378;2023-04-01T10:14:31;92870.28;;;22.46;31.84
7335;BME280;3708;42.632;23.378;2023-04-01T10:17:25;92851.78;;;22.14;31.53
7335;BME280;3708;42.632;23.378;2023-04-01T10:20:12;92859.03;;;22.26;33.12
7335;BME280;3708;42.632;23.378;2023-04-01T10:26:10;92862.91;;;22.50;32.54
7335;BME280;3708;42.632;23.378;2023-04-01T10:29:00;92858.78;;;22.62;32.13
7335;BME280;3708;42.632;23.378;2023-04-01T10:38:19;92851.44;;;20.62;33.96
7335;BME280;3708;42.632;23.378;2023-04-01T10:41:01;92841.72;;;20.87;33.74
7335;BME280;3708;42.632;23.378;2023-04-01T10:44:05;92819.19;;;21.24;33.22
7335;BME280;3708;42.632;23.378;2023-04-01T10:50:15;92833.47;;;20.82;33.52
7335;BME280;3708;42.632;23.378;2023-04-01T10:53:21;92817.00;;;20.71;33.50
7335;BME280;3708;42.632;23.378;2023-04-01T10:56:29;92819.84;;;20.80;33.42
7335;BME280;3708;42.632;23.378;2023-04-01T11:05:59;92809.53;;;20.14;34.70
7335;BME280;3708;42.632;23.378;2023-04-01T11:09:04;92790.72;;;19.69;35.09
7335;BME280;3708;42.632;23.378;2023-04-01T11:12:06;92799.03;;;20.26;33.28
7335;BME280;3708;42.632;23.378;2023-04-01T11:15:01;92796.91;;;20.18;31.67
7335;BME280;3708;42.632;23.378;2023-04-01T11:18:02;92800.56;;;20.43;32.77
7335;BME280;3708;42.632;23.378;2023-04-01T11:21:02;92794.63;;;20.00;32.81
7335;BME280;3708;42.632;23.378;2023-04-01T11:24:03;92792.06;;;19.97;34.31
7335;BME280;3708;42.632;23.378;2023-04-01T11:26:41;92796.88;;;20.02;34.65
7335;BME280;3708;42.632;23.378;2023-04-01T11:29:41;92798.34;;;19.87;31.63
7335;BME280;3708;42.632;23.378;2023-04-01T11:32:23;92815.41;;;19.27;31.43
7335;BME280;3708;42.632;23.378;2023-04-01T11:35:00;92850.69;;;19.04;31.44
7335;BME280;3708;42.632;23.378;2023-04-01T11:37:40;92845.88;;;19.19;31.69
7335;BME280;3708;42.632;23.378;2023-04-01T11:40:19;92856.44;;;19.22;31.99
7335;BME280;3708;42.632;23.378;2023-04-01T11:42:53;92895.97;;;18.67;33.60
7335;BME280;3708;42.632;23.378;2023-04-01T11:45:36;92974.00;;;18.02;38.59
7335;BME280;3708;42.632;23.378;2023-04-01T11:48:13;92950.38;;;16.20;44.95
7335;BME280;3708;42.632;23.378;2023-04-01T11:50:58;93001.88;;;15.48;46.86
7335;BME280;3708;42.632;23.378;2023-04-01T11:53:41;92987.84;;;15.93;46.48
7335;BME280;3708;42.632;23.378;2023-04-01T11:56:21;93021.44;;;15.65;49.41
7335;BME280;3708;42.632;23.378;2023-04-01T11:59:25;93042.06;;;13.89;56.21
7335;BME280;3708;42.632;23.378;2023-04-01T12:02:00;93052.91;;;12.92;60.92
7335;BME280;3708;42.632;23.378;2023-04-01T12:04:58;93080.66;;;12.53;63.30
7335;BME280;3708;42.632;23.378;2023-04-01T12:07:44;93052.19;;;11.96;66.70
7335;BME280;3708;42.632;23.378;2023-04-01T12:10:21;93014.56;;;12.48;65.76
7335;BME280;3708;42.632;23.378;2023-04-01T12:12:59;93036.28;;;12.45;66.68
7335;BME280;3708;42.632;23.378;2023-04-01T12:15:35;93029.34;;;12.63;66.74
7335;BME280;3708;42.632;23.378;2023-04-01T12:18:13;93040.63;;;13.00;67.02
7335;BME280;3708;42.632;23.378;2023-04-01T12:20:49;93031.53;;;13.34;67.11
7335;BME280;3708;42.632;23.378;2023-04-01T12:23:39;93036.97;;;14.24;64.42
7335;BME280;3708;42.632;23.378;2023-04-01T12:26:28;93029.56;;;14.47;63.31
7335;BME280;3708;42.632;23.378;2023-04-01T12:29:09;93031.00;;;13.65;64.30
7335;BME280;3708;42.632;23.378;2023-04-01T12:31:49;93020.59;;;13.87;63.14
7335;BME280;3708;42.632;23.378;2023-04-01T12:37:17;93013.78;;;14.50;61.58
7335;BME280;3708;42.632;23.378;2023-04-01T12:39:56;93030.00;;;14.67;60.34
7335;BME280;3708;42.632;23.378;2023-04-01T12:42:45;93036.84;;;14.85;59.64
7335;BME280;3708;42.632;23.378;2023-04-01T12:45:28;93032.63;;;14.67;59.57
7335;BME280;3708;42.632;23.378;2023-04-01T12:48:15;93025.88;;;14.80;60.39
7335;BME280;3708;42.632;23.378;2023-04-01T12:51:24;93035.59;;;14.51;61.74
7335;BME280;3708;42.632;23.378;2023-04-01T12:57:02;93041.50;;;14.27;63.06
7335;BME280;3708;42.632;23.378;2023-04-01T12:59:46;93025.66;;;14.23;63.11
7335;BME280;3708;42.632;23.378;2023-04-01T13:02:25;93026.81;;;14.22;63.95
7335;BME280;3708;42.632;23.378;2023-04-01T13:05:18;93016.66;;;14.28;62.89
7335;BME280;3708;42.632;23.378;2023-04-01T13:08:00;93011.44;;;14.31;63.14
7335;BME280;3708;42.632;23.378;2023-04-01T13:10:38;93006.97;;;14.49;61.69
7335;BME280;3708;42.632;23.378;2023-04-01T13:13:21;93002.50;;;14.61;60.38
7335;BME280;3708;42.632;23.378;2023-04-01T13:15:58;93000.25;;;14.73;61.46
7335;BME280;3708;42.632;23.378;2023-04-01T13:18:35;92974.31;;;15.14;60.52
7335;BME280;3708;42.632;23.378;2023-04-01T13:21:11;92933.88;;;15.94;61.83
7335;BME280;3708;42.632;23.378;2023-04-01T13:23:56;92916.59;;;17.10;61.77
7335;BME280;3708;42.632;23.378;2023-04-01T13:26:33;92928.56;;;18.07;57.94
7335;BME280;3708;42.632;23.378;2023-04-01T13:29:04;92922.50;;;19.17;54.07
7335;BME280;3708;42.632;23.378;2023-04-01T13:31:48;92917.50;;;19.68;48.06
7335;BME280;3708;42.632;23.378;2023-04-01T13:34:28;92921.56;;;20.12;44.63
7335;BME280;3708;42.632;23.378;2023-04-01T13:37:16;92912.06;;;20.34;42.78
7335;BME280;3708;42.632;23.378;2023-04-01T13:39:56;92899.16;;;20.69;40.05
7335;BME280;3708;42.632;23.378;2023-04-01T13:42:29;92907.69;;;20.44;39.05
7335;BME280;3708;42.632;23.378;2023-04-01T13:45:02;92918.28;;;20.64;37.54
7335;BME280;3708;42.632;23.378;2023-04-01T13:47:53;92898.56;;;21.13;36.74
7335;BME280;3708;42.632;23.378;2023-04-01T13:50:32;92878.13;;;22.12;36.97
7335;BME280;3708;42.632;23.378;2023-04-01T13:53:24;92904.38;;;22.80;35.05
7335;BME280;3708;42.632;23.378;2023-04-01T13:56:12;92889.31;;;23.58;34.04
7335;BME280;3708;42.632;23.378;2023-04-01T13:59:02;92909.50;;;23.37;33.28
7335;BME280;3708;42.632;23.378;2023-04-01T14:01:39;92895.38;;;22.99;36.04
7335;BME280;3708;42.632;23.378;2023-04-01T14:04:41;92868.75;;;23.46;35.57
7335;BME280;3708;42.632;23.378;2023-04-01T14:07:28;92869.88;;;24.44;34.41
7335;BME280;3708;42.632;23.378;2023-04-01T14:10:07;92861.94;;;23.88;34.01
7335;BME280;3708;42.632;23.378;2023-04-01T14:12:42;92866.16;;;23.42;38.23
7335;BME280;3708;42.632;23.378;2023-04-01T14:15:40;92881.25;;;23.24;38.65
7335;BME280;3708;42.632;23.378;2023-04-01T14:18:16;92875.31;;;22.57;39.61
7335;BME280;3708;42.632;23.378;2023-04-01T14:20:53;92885.16;;;22.06;41.04
7335;BME280;3708;42.632;23.378;2023-04-01T14:23:46;92870.44;;;21.28;42.27
7335;BME280;3708;42.632;23.378;2023-04-01T14:26:33;92856.47;;;21.08;42.90
7335;BME280;3708;42.632;23.378;2023-04-01T14:29:10;92840.66;;;20.85;43.53
7335;BME280;3708;42.632;23.378;2023-04-01T14:31:50;92841.78;;;20.84;43.22
7335;BME280;3708;42.632;23.378;2023-04-01T14:34:32;92855.34;;;20.57;43.38
7335;BME280;3708;42.632;23.378;2023-04-01T14:37:23;92862.94;;;20.03;44.81
7335;BME280;3708;42.632;23.378;2023-04-01T14:43:06;92852.50;;;19.73;45.42
7335;BME280;3708;42.632;23.378;2023-04-01T14:45:57;92842.28;;;19.52;45.59
7335;BME280;3708;42.632;23.378;2023-04-01T14:48:32;92851.94;;;19.42;45.98
7335;BME280;3708;42.632;23.378;2023-04-01T14:51:04;92829.47;;;19.47;45.91
7335;BME280;3708;42.632;23.378;2023-04-01T14:53:41;92846.69;;;19.58;45.77
7335;BME280;3708;42.632;23.378;2023-04-01T14:56:11;92847.66;;;20.43;43.89